sensor_id;sensor_type;location;lat;lon;timestamp;temperature;humidity
63317;DHT22;49822;41.468;13.560;2023-07-08T00:01:17;24.00;89.80
63317;DHT22;49822;41.468;13.560;2023-07-08T00:03:43;24.10;89.70
63317;DHT22;49822;41.468;13.560;2023-07-08T00:06:28;24.20;88.80
63317;DHT22;49822;41.468;13.560;2023-07-08T00:08:54;24.30;88.40
63317;DHT22;49822;41.468;13.560;2023-07-08T00:11:22;24.20;89.30
63317;DHT22;49822;41.468;13.560;2023-07-08T00:13:48;24.10;89.60
63317;DHT22;49822;41.468;13.560;2023-07-08T00:16:16;24.10;89.20
63317;DHT22;49822;41.468;13.560;2023-07-08T00:18:44;24.20;89.10
63317;DHT22;49822;41.468;13.560;2023-07-08T00:21:12;24.30;88.60
63317;DHT22;49822;41.468;13.560;2023-07-08T00:23:50;24.30;87.90
63317;DHT22;49822;41.468;13.560;2023-07-08T00:26:25;24.30;87.70
63317;DHT22;49822;41.468;13.560;2023-07-08T00:28:53;24.30;88.30
63317;DHT22;49822;41.468;13.560;2023-07-08T00:31:20;24.30;88.10
63317;DHT22;49822;41.468;13.560;2023-07-08T00:33:52;24.30;88.30
63317;DHT22;49822;41.468;13.560;2023-07-08T00:36:22;24.30;88.50
63317;DHT22;49822;41.468;13.560;2023-07-08T00:38:48;24.30;88.30
63317;DHT22;49822;41.468;13.560;2023-07-08T00:41:36;24.30;88.50
63317;DHT22;49822;41.468;13.560;2023-07-08T00:44:04;24.30;88.60
63317;DHT22;49822;41.468;13.560;2023-07-08T00:46:31;24.30;88.20
63317;DHT22;49822;41.468;13.560;2023-07-08T00:51:39;24.20;88.00
63317;DHT22;49822;41.468;13.560;2023-07-08T00:54:12;24.30;87.70
63317;DHT22;49822;41.468;13.560;2023-07-08T00:56:55;24.30;87.70
63317;DHT22;49822;41.468;13.560;2023-07-08T00:59:35;24.30;88.30
63317;DHT22;49822;41.468;13.560;2023-07-08T01:02:05;24.30;88.30
63317;DHT22;49822;41.468;13.560;2023-07-08T01:04:44;24.40;88.20
63317;DHT22;49822;41.468;13.560;2023-07-08T01:07:14;24.40;88.10
63317;DHT22;49822;41.468;13.560;2023-07-08T01:09:50;24.30;87.80
63317;DHT22;49822;41.468;13.560;2023-07-08T01:12:24;24.30;88.20
63317;DHT22;49822;41.468;13.560;2023-07-08T01:14:53;24.20;88.70
63317;DHT22;49822;41.468;13.560;2023-07-08T01:17:21;23.90;89.30
63317;DHT22;49822;41.468;13.560;2023-07-08T01:19:49;23.90;89.30
63317;DHT22;49822;41.468;13.560;2023-07-08T01:22:17;23.80;89.40
63317;DHT22;49822;41.468;13.560;2023-07-08T01:24:44;23.90;89.30
63317;DHT22;49822;41.468;13.560;2023-07-08T01:27:13;24.00;88.90
63317;DHT22;49822;41.468;13.560;2023-07-08T01:29:40;23.80;89.10
63317;DHT22;49822;41.468;13.560;2023-07-08T01:32:09;23.80;89.90
63317;DHT22;49822;41.468;13.560;2023-07-08T01:34:39;23.80;89.70
63317;DHT22;49822;41.468;13.560;2023-07-08T01:37:06;23.90;89.60
63317;DHT22;49822;41.468;13.560;2023-07-08T01:39:35;24.00;89.20
63317;DHT22;49822;41.468;13.560;2023-07-08T01:42:01;24.00;88.70
63317;DHT22;49822;41.468;13.560;2023-07-08T01:44:33;24.20;88.50
63317;DHT22;49822;41.468;13.560;2023-07-08T01:47:11;24.40;88.30
63317;DHT22;49822;41.468;13.560;2023-07-08T01:49:39;24.50;88.20
63317;DHT22;49822;41.468;13.560;2023-07-08T01:52:07;24.50;87.70
63317;DHT22;49822;41.468;13.560;2023-07-08T01:54:35;24.60;87.60
63317;DHT22;49822;41.468;13.560;2023-07-08T01:57:01;24.70;87.50
63317;DHT22;49822;41.468;13.560;2023-07-08T01:59:28;24.70;87.50
63317;DHT22;49822;41.468;13.560;2023-07-08T02:01:55;24.80;87.10
63317;DHT22;49822;41.468;13.560;2023-07-08T02:04:22;24.90;86.80
63317;DHT22;49822;41.468;13.560;2023-07-08T02:06:54;24.90;86.80
63317;DHT22;49822;41.468;13.560;2023-07-08T02:09:21;25.00;86.60
63317;DHT22;49822;41.468;13.560;2023-07-08T02:11:47;24.90;87.00
63317;DHT22;49822;41.468;13.560;2023-07-08T02:14:13;24.80;87.10
63317;DHT22;49822;41.468;13.560;2023-07-08T02:16:39;24.70;87.30
63317;DHT22;49822;41.468;13.560;2023-07-08T02:19:05;24.70;87.10
63317;DHT22;49822;41.468;13.560;2023-07-08T02:21:31;24.60;87.10
63317;DHT22;49822;41.468;13.560;2023-07-08T02:24:00;24.60;87.10
63317;DHT22;49822;41.468;13.560;2023-07-08T02:26:26;24.60;87.30
63317;DHT22;49822;41.468;13.560;2023-07-08T02:28:53;24.50;87.20
63317;DHT22;49822;41.468;13.560;2023-07-08T02:31:19;24.40;87.40
63317;DHT22;49822;41.468;13.560;2023-07-08T02:33:48;24.40;87.70
63317;DHT22;49822;41.468;13.560;2023-07-08T02:36:14;24.40;87.50
63317;DHT22;49822;41.468;13.560;2023-07-08T02:38:40;24.40;87.80
63317;DHT22;49822;41.468;13.560;2023-07-08T02:41:08;24.40;87.70
63317;DHT22;49822;41.468;13.560;2023-07-08T02:43:34;24.40;87.70
63317;DHT22;49822;41.468;13.560;2023-07-08T02:46:00;24.50;87.80
63317;DHT22;49822;41.468;13.560;2023-07-08T02:48:26;24.40;87.90
63317;DHT22;49822;41.468;13.560;2023-07-08T02:51:02;24.40;88.20
63317;DHT22;49822;41.468;13.560;2023-07-08T02:53:29;24.30;88.50
63317;DHT22;49822;41.468;13.560;2023-07-08T02:55:55;24.20;88.60
63317;DHT22;49822;41.468;13.560;2023-07-08T02:58:21;24.20;89.20
63317;DHT22;49822;41.468;13.560;2023-07-08T03:00:55;24.00;90.30
63317;DHT22;49822;41.468;13.560;2023-07-08T03:03:21;23.70;91.20
63317;DHT22;49822;41.468;13.560;2023-07-08T03:05:58;23.50;92.10
63317;DHT22;49822;41.468;13.560;2023-07-08T03:08:26;23.40;92.30
63317;DHT22;49822;41.468;13.560;2023-07-08T03:11:01;23.50;92.00
63317;DHT22;49822;41.468;13.560;2023-07-08T03:13:28;23.60;91.30
63317;DHT22;49822;41.468;13.560;2023-07-08T03:15:56;23.70;90.50
63317;DHT22;49822;41.468;13.560;2023-07-08T03:18:23;23.60;90.80
63317;DHT22;49822;41.468;13.560;2023-07-08T03:20:53;23.70;90.40
63317;DHT22;49822;41.468;13.560;2023-07-08T03:23:23;23.80;90.20
63317;DHT22;49822;41.468;13.560;2023-07-08T03:25:51;23.80;90.40
63317;DHT22;49822;41.468;13.560;2023-07-08T03:28:19;23.70;90.80
63317;DHT22;49822;41.468;13.560;2023-07-08T03:30:52;23.50;92.20
63317;DHT22;49822;41.468;13.560;2023-07-08T03:33:19;23.40;92.40
63317;DHT22;49822;41.468;13.560;2023-07-08T03:35:45;23.40;92.30
63317;DHT22;49822;41.468;13.560;2023-07-08T03:38:11;23.40;92.00
63317;DHT22;49822;41.468;13.560;2023-07-08T03:40:37;23.60;91.70
63317;DHT22;49822;41.468;13.560;2023-07-08T03:43:03;23.60;91.80
63317;DHT22;49822;41.468;13.560;2023-07-08T03:45:31;23.60;90.90
63317;DHT22;49822;41.468;13.560;2023-07-08T03:47:58;23.60;90.90
63317;DHT22;49822;41.468;13.560;2023-07-08T03:50:26;23.80;90.50
63317;DHT22;49822;41.468;13.560;2023-07-08T03:52:54;23.90;90.20
63317;DHT22;49822;41.468;13.560;2023-07-08T03:55:24;23.80;90.00
63317;DHT22;49822;41.468;13.560;2023-07-08T03:57:51;23.90;90.00
63317;DHT22;49822;41.468;13.560;2023-07-08T04:00:18;24.00;89.70
63317;DHT22;49822;41.468;13.560;2023-07-08T04:02:47;24.00;90.00
63317;DHT22;49822;41.468;13.560;2023-07-08T04:05:22;23.90;90.40
63317;DHT22;49822;41.468;13.560;2023-07-08T04:07:49;23.90;90.50
63317;DHT22;49822;41.468;13.560;2023-07-08T04:10:15;24.00;90.00
63317;DHT22;49822;41.468;13.560;2023-07-08T04:12:42;24.00;90.00
63317;DHT22;49822;41.468;13.560;2023-07-08T04:15:09;23.90;90.10
63317;DHT22;49822;41.468;13.560;2023-07-08T04:17:43;23.90;90.30
63317;DHT22;49822;41.468;13.560;2023-07-08T04:20:13;23.90;90.00
63317;DHT22;49822;41.468;13.560;2023-07-08T04:22:40;23.90;90.10
63317;DHT22;49822;41.468;13.560;2023-07-08T04:25:07;23.80;90.40
63317;DHT22;49822;41.468;13.560;2023-07-08T04:27:33;23.90;90.40
63317;DHT22;49822;41.468;13.560;2023-07-08T04:29:59;23.90;90.30
63317;DHT22;49822;41.468;13.560;2023-07-08T04:32:25;24.00;90.20
63317;DHT22;49822;41.468;13.560;2023-07-08T04:34:52;23.90;90.40
63317;DHT22;49822;41.468;13.560;2023-07-08T04:37:18;23.80;91.00
63317;DHT22;49822;41.468;13.560;2023-07-08T04:39:45;23.60;91.10
63317;DHT22;49822;41.468;13.560;2023-07-08T04:44:41;24.00;90.50
63317;DHT22;49822;41.468;13.560;2023-07-08T04:47:08;24.20;90.00
63317;DHT22;49822;41.468;13.560;2023-07-08T04:49:42;24.30;89.80
63317;DHT22;49822;41.468;13.560;2023-07-08T04:52:10;24.50;89.60
63317;DHT22;49822;41.468;13.560;2023-07-08T04:54:36;24.70;89.90
63317;DHT22;49822;41.468;13.560;2023-07-08T04:57:02;24.80;89.50
63317;DHT22;49822;41.468;13.560;2023-07-08T04:59:28;24.90;89.30
63317;DHT22;49822;41.468;13.560;2023-07-08T05:02:00;25.10;88.80
63317;DHT22;49822;41.468;13.560;2023-07-08T05:04:26;25.00;88.60
63317;DHT22;49822;41.468;13.560;2023-07-08T05:06:52;25.10;88.20
63317;DHT22;49822;41.468;13.560;2023-07-08T05:09:18;25.20;88.40
63317;DHT22;49822;41.468;13.560;2023-07-08T05:11:44;25.30;88.10
63317;DHT22;49822;41.468;13.560;2023-07-08T05:14:12;25.20;88.00
63317;DHT22;49822;41.468;13.560;2023-07-08T05:16:38;25.30;88.00
63317;DHT22;49822;41.468;13.560;2023-07-08T05:19:05;25.40;87.30
63317;DHT22;49822;41.468;13.560;2023-07-08T05:21:32;25.40;87.40
63317;DHT22;49822;41.468;13.560;2023-07-08T05:24:01;25.40;87.50
63317;DHT22;49822;41.468;13.560;2023-07-08T05:26:28;25.50;87.50
63317;DHT22;49822;41.468;13.560;2023-07-08T05:28:54;25.50;87.80
63317;DHT22;49822;41.468;13.560;2023-07-08T05:31:20;25.60;87.50
63317;DHT22;49822;41.468;13.560;2023-07-08T05:33:46;25.60;87.30
63317;DHT22;49822;41.468;13.560;2023-07-08T05:36:12;25.60;87.40
63317;DHT22;49822;41.468;13.560;2023-07-08T05:38:38;25.60;87.40
63317;DHT22;49822;41.468;13.560;2023-07-08T05:41:04;25.60;87.10
63317;DHT22;49822;41.468;13.560;2023-07-08T05:43:30;25.60;87.10
63317;DHT22;49822;41.468;13.560;2023-07-08T05:46:00;25.50;87.00
63317;DHT22;49822;41.468;13.560;2023-07-08T05:48:27;25.60;87.00
63317;DHT22;49822;41.468;13.560;2023-07-08T05:50:55;25.70;86.90
63317;DHT22;49822;41.468;13.560;2023-07-08T05:53:21;25.80;86.90
63317;DHT22;49822;41.468;13.560;2023-07-08T05:55:49;25.90;87.00
63317;DHT22;49822;41.468;13.560;2023-07-08T05:58:15;26.00;86.80
63317;DHT22;49822;41.468;13.560;2023-07-08T06:00:43;26.10;86.50
63317;DHT22;49822;41.468;13.560;2023-07-08T06:03:10;26.20;86.30
63317;DHT22;49822;41.468;13.560;2023-07-08T06:05:39;26.30;86.00
63317;DHT22;49822;41.468;13.560;2023-07-08T06:08:06;26.40;85.20
63317;DHT22;49822;41.468;13.560;2023-07-08T06:10:34;26.50;85.00
63317;DHT22;49822;41.468;13.560;2023-07-08T06:13:00;26.40;84.90
63317;DHT22;49822;41.468;13.560;2023-07-08T06:15:26;26.50;85.10
63317;DHT22;49822;41.468;13.560;2023-07-08T06:17:53;26.50;84.90
63317;DHT22;49822;41.468;13.560;2023-07-08T06:20:19;26.60;85.20
63317;DHT22;49822;41.468;13.560;2023-07-08T06:22:45;26.70;84.20
63317;DHT22;49822;41.468;13.560;2023-07-08T06:25:12;26.40;83.80
63317;DHT22;49822;41.468;13.560;2023-07-08T06:27:38;26.50;84.50
63317;DHT22;49822;41.468;13.560;2023-07-08T06:30:07;26.50;84.40
63317;DHT22;49822;41.468;13.560;2023-07-08T06:32:34;26.60;84.70
63317;DHT22;49822;41.468;13.560;2023-07-08T06:35:01;26.70;84.70
63317;DHT22;49822;41.468;13.560;2023-07-08T06:37:27;26.80;83.90
63317;DHT22;49822;41.468;13.560;2023-07-08T06:39:53;27.00;83.70
63317;DHT22;49822;41.468;13.560;2023-07-08T06:42:19;27.10;83.40
63317;DHT22;49822;41.468;13.560;2023-07-08T06:44:54;27.20;83.00
63317;DHT22;49822;41.468;13.560;2023-07-08T06:47:23;27.40;82.60
63317;DHT22;49822;41.468;13.560;2023-07-08T06:49:51;27.60;81.80
63317;DHT22;49822;41.468;13.560;2023-07-08T06:52:17;27.70;81.90
63317;DHT22;49822;41.468;13.560;2023-07-08T06:54:45;27.90;81.60
63317;DHT22;49822;41.468;13.560;2023-07-08T06:57:23;28.00;80.80
63317;DHT22;49822;41.468;13.560;2023-07-08T07:00:26;28.10;81.10
63317;DHT22;49822;41.468;13.560;2023-07-08T07:03:08;28.20;81.00
63317;DHT22;49822;41.468;13.560;2023-07-08T07:05:34;28.30;81.00
63317;DHT22;49822;41.468;13.560;2023-07-08T07:08:00;28.40;81.00
63317;DHT22;49822;41.468;13.560;2023-07-08T07:10:27;28.50;80.90
63317;DHT22;49822;41.468;13.560;2023-07-08T07:12:58;28.70;81.30
63317;DHT22;49822;41.468;13.560;2023-07-08T07:15:28;28.60;80.70
63317;DHT22;49822;41.468;13.560;2023-07-08T07:17:59;28.80;80.70
63317;DHT22;49822;41.468;13.560;2023-07-08T07:20:25;28.80;80.70
63317;DHT22;49822;41.468;13.560;2023-07-08T07:22:52;28.90;80.90
63317;DHT22;49822;41.468;13.560;2023-07-08T07:25:19;28.90;81.50
63317;DHT22;49822;41.468;13.560;2023-07-08T07:27:47;29.00;81.10
63317;DHT22;49822;41.468;13.560;2023-07-08T07:30:13;29.10;79.60
63317;DHT22;49822;41.468;13.560;2023-07-08T07:32:42;29.20;79.80
63317;DHT22;49822;41.468;13.560;2023-07-08T07:35:11;29.20;79.30
63317;DHT22;49822;41.468;13.560;2023-07-08T07:37:39;29.10;78.10
63317;DHT22;49822;41.468;13.560;2023-07-08T07:40:10;29.20;76.80
63317;DHT22;49822;41.468;13.560;2023-07-08T07:42:43;29.30;77.70
63317;DHT22;49822;41.468;13.560;2023-07-08T07:45:11;29.30;76.30
63317;DHT22;49822;41.468;13.560;2023-07-08T07:47:37;29.20;77.50
63317;DHT22;49822;41.468;13.560;2023-07-08T07:50:07;29.20;77.20
63317;DHT22;49822;41.468;13.560;2023-07-08T07:52:35;29.00;77.30
63317;DHT22;49822;41.468;13.560;2023-07-08T07:55:02;29.10;76.90
63317;DHT22;49822;41.468;13.560;2023-07-08T07:57:29;29.30;76.70
63317;DHT22;49822;41.468;13.560;2023-07-08T07:59:56;29.60;76.90
63317;DHT22;49822;41.468;13.560;2023-07-08T08:02:23;29.60;75.40
63317;DHT22;49822;41.468;13.560;2023-07-08T08:04:49;29.70;75.90
63317;DHT22;49822;41.468;13.560;2023-07-08T08:07:15;29.80;75.80
63317;DHT22;49822;41.468;13.560;2023-07-08T08:09:41;29.90;75.20
63317;DHT22;49822;41.468;13.560;2023-07-08T08:12:10;30.10;75.70
63317;DHT22;49822;41.468;13.560;2023-07-08T08:14:37;30.20;75.70
63317;DHT22;49822;41.468;13.560;2023-07-08T08:17:03;30.40;75.40
63317;DHT22;49822;41.468;13.560;2023-07-08T08:19:30;30.60;75.60
63317;DHT22;49822;41.468;13.560;2023-07-08T08:21:57;30.80;75.30
63317;DHT22;49822;41.468;13.560;2023-07-08T08:24:23;30.70;73.70
63317;DHT22;49822;41.468;13.560;2023-07-08T08:26:49;30.90;74.30
63317;DHT22;49822;41.468;13.560;2023-07-08T08:29:15;30.90;74.60
63317;DHT22;49822;41.468;13.560;2023-07-08T08:31:41;31.10;74.70
63317;DHT22;49822;41.468;13.560;2023-07-08T08:34:08;31.30;74.60
63317;DHT22;49822;41.468;13.560;2023-07-08T08:36:34;31.50;73.80
63317;DHT22;49822;41.468;13.560;2023-07-08T08:39:00;31.70;74.20
63317;DHT22;49822;41.468;13.560;2023-07-08T08:41:31;31.80;73.10
63317;DHT22;49822;41.468;13.560;2023-07-08T08:43:58;31.80;74.70
63317;DHT22;49822;41.468;13.560;2023-07-08T08:49:23;31.80;73.20
63317;DHT22;49822;41.468;13.560;2023-07-08T08:51:51;31.80;73.40
63317;DHT22;49822;41.468;13.560;2023-07-08T08:54:18;31.90;72.90
63317;DHT22;49822;41.468;13.560;2023-07-08T08:56:59;31.80;72.50
63317;DHT22;49822;41.468;13.560;2023-07-08T09:05:13;32.00;72.20
63317;DHT22;49822;41.468;13.560;2023-07-08T09:08:16;32.00;71.70
63317;DHT22;49822;41.468;13.560;2023-07-08T09:10:57;32.10;71.30
63317;DHT22;49822;41.468;13.560;2023-07-08T09:13:35;32.20;71.50
63317;DHT22;49822;41.468;13.560;2023-07-08T09:16:25;32.20;71.50
63317;DHT22;49822;41.468;13.560;2023-07-08T09:19:04;32.30;70.90
63317;DHT22;49822;41.468;13.560;2023-07-08T09:21:37;32.30;71.30
63317;DHT22;49822;41.468;13.560;2023-07-08T09:24:33;32.40;70.10
63317;DHT22;49822;41.468;13.560;2023-07-08T09:27:03;32.40;70.00
63317;DHT22;49822;41.468;13.560;2023-07-08T09:29:32;32.30;68.00
63317;DHT22;49822;41.468;13.560;2023-07-08T09:32:11;32.30;69.10
63317;DHT22;49822;41.468;13.560;2023-07-08T09:34:50;32.50;71.10
63317;DHT22;49822;41.468;13.560;2023-07-08T09:37:34;32.60;68.90
63317;DHT22;49822;41.468;13.560;2023-07-08T09:40:14;32.60;70.40
63317;DHT22;49822;41.468;13.560;2023-07-08T09:42:44;32.80;69.60
63317;DHT22;49822;41.468;13.560;2023-07-08T09:45:21;32.80;69.50
63317;DHT22;49822;41.468;13.560;2023-07-08T09:47:55;32.80;69.20
63317;DHT22;49822;41.468;13.560;2023-07-08T09:50:27;32.90;70.10
63317;DHT22;49822;41.468;13.560;2023-07-08T09:52:55;33.00;68.50
63317;DHT22;49822;41.468;13.560;2023-07-08T09:55:31;33.00;68.40
63317;DHT22;49822;41.468;13.560;2023-07-08T09:57:59;33.20;69.00
63317;DHT22;49822;41.468;13.560;2023-07-08T10:00:43;33.20;67.20
63317;DHT22;49822;41.468;13.560;2023-07-08T10:03:28;33.10;68.80
63317;DHT22;49822;41.468;13.560;2023-07-08T10:05:58;33.10;69.50
63317;DHT22;49822;41.468;13.560;2023-07-08T10:08:37;33.20;68.40
63317;DHT22;49822;41.468;13.560;2023-07-08T10:15:47;33.50;67.50
63317;DHT22;49822;41.468;13.560;2023-07-08T10:18:16;33.70;68.00
63317;DHT22;49822;41.468;13.560;2023-07-08T10:26:28;33.70;67.00
63317;DHT22;49822;41.468;13.560;2023-07-08T10:29:32;33.60;66.10
63317;DHT22;49822;41.468;13.560;2023-07-08T10:32:15;33.50;66.90
63317;DHT22;49822;41.468;13.560;2023-07-08T10:35:09;33.50;68.20
63317;DHT22;49822;41.468;13.560;2023-07-08T10:40:52;33.70;68.40
63317;DHT22;49822;41.468;13.560;2023-07-08T10:47:07;34.00;67.20
63317;DHT22;49822;41.468;13.560;2023-07-08T10:52:51;34.20;66.20
63317;DHT22;49822;41.468;13.560;2023-07-08T10:55:41;34.20;66.60
63317;DHT22;49822;41.468;13.560;2023-07-08T10:58:44;34.40;66.60
63317;DHT22;49822;41.468;13.560;2023-07-08T11:02:00;34.40;66.40
63317;DHT22;49822;41.468;13.560;2023-07-08T11:10:15;34.60;63.20
63317;DHT22;49822;41.468;13.560;2023-07-08T11:12:45;34.30;65.00
63317;DHT22;49822;41.468;13.560;2023-07-08T11:15:20;34.30;66.40
63317;DHT22;49822;41.468;13.560;2023-07-08T11:18:12;34.00;63.50
63317;DHT22;49822;41.468;13.560;2023-07-08T11:26:05;34.00;65.70
63317;DHT22;49822;41.468;13.560;2023-07-08T11:28:31;34.20;66.20
63317;DHT22;49822;41.468;13.560;2023-07-08T11:31:00;34.40;64.90
63317;DHT22;49822;41.468;13.560;2023-07-08T11:33:28;34.50;65.20
63317;DHT22;49822;41.468;13.560;2023-07-08T11:35:57;34.50;64.80
63317;DHT22;49822;41.468;13.560;2023-07-08T11:38:25;34.50;63.20
63317;DHT22;49822;41.468;13.560;2023-07-08T11:40:53;34.70;62.50
63317;DHT22;49822;41.468;13.560;2023-07-08T11:43:21;34.70;61.60
63317;DHT22;49822;41.468;13.560;2023-07-08T11:45:50;34.80;62.50
63317;DHT22;49822;41.468;13.560;2023-07-08T11:48:21;35.00;61.90
63317;DHT22;49822;41.468;13.560;2023-07-08T11:50:49;35.00;61.70
63317;DHT22;49822;41.468;13.560;2023-07-08T11:56:00;35.00;62.60
63317;DHT22;49822;41.468;13.560;2023-07-08T11:58:29;35.30;62.20
63317;DHT22;49822;41.468;13.560;2023-07-08T12:08:55;36.00;60.40
63317;DHT22;49822;41.468;13.560;2023-07-08T12:11:33;36.00;59.60
63317;DHT22;49822;41.468;13.560;2023-07-08T12:14:02;36.00;60.20
63317;DHT22;49822;41.468;13.560;2023-07-08T12:16:31;35.80;58.80
63317;DHT22;49822;41.468;13.560;2023-07-08T12:18:59;35.70;59.10
63317;DHT22;49822;41.468;13.560;2023-07-08T12:21:27;35.50;58.10
63317;DHT22;49822;41.468;13.560;2023-07-08T12:23:54;35.50;58.80
63317;DHT22;49822;41.468;13.560;2023-07-08T12:26:22;35.70;60.40
63317;DHT22;49822;41.468;13.560;2023-07-08T12:28:50;35.70;58.40
63317;DHT22;49822;41.468;13.560;2023-07-08T12:34:34;34.60;64.40
63317;DHT22;49822;41.468;13.560;2023-07-08T12:37:01;34.30;64.40
63317;DHT22;49822;41.468;13.560;2023-07-08T12:42:42;34.10;64.80
63317;DHT22;49822;41.468;13.560;2023-07-08T12:45:16;34.10;64.40
63317;DHT22;49822;41.468;13.560;2023-07-08T12:47:43;34.30;64.90
63317;DHT22;49822;41.468;13.560;2023-07-08T12:50:14;34.30;65.10
63317;DHT22;49822;41.468;13.560;2023-07-08T12:52:44;34.20;63.90
63317;DHT22;49822;41.468;13.560;2023-07-08T12:55:12;34.10;63.60
63317;DHT22;49822;41.468;13.560;2023-07-08T12:57:44;34.00;65.30
63317;DHT22;49822;41.468;13.560;2023-07-08T13:00:16;34.30;64.10
63317;DHT22;49822;41.468;13.560;2023-07-08T13:02:47;34.40;63.30
63317;DHT22;49822;41.468;13.560;2023-07-08T13:05:14;34.50;63.40
63317;DHT22;49822;41.468;13.560;2023-07-08T13:07:43;34.50;63.30
63317;DHT22;49822;41.468;13.560;2023-07-08T13:10:21;34.40;65.00
63317;DHT22;49822;41.468;13.560;2023-07-08T13:13:19;34.40;64.20
63317;DHT22;49822;41.468;13.560;2023-07-08T13:15:52;34.00;64.40
63317;DHT22;49822;41.468;13.560;2023-07-08T13:18:43;34.00;64.80
63317;DHT22;49822;41.468;13.560;2023-07-08T13:21:14;34.20;64.40
63317;DHT22;49822;41.468;13.560;2023-07-08T13:23:44;34.30;65.60
63317;DHT22;49822;41.468;13.560;2023-07-08T13:26:20;34.30;64.80
63317;DHT22;49822;41.468;13.560;2023-07-08T13:32:04;34.40;65.70
63317;DHT22;49822;41.468;13.560;2023-07-08T13:34:32;34.50;65.60
63317;DHT22;49822;41.468;13.560;2023-07-08T13:36:59;34.50;66.60
63317;DHT22;49822;41.468;13.560;2023-07-08T13:39:33;34.10;65.80
63317;DHT22;49822;41.468;13.560;2023-07-08T13:42:03;34.00;65.80
63317;DHT22;49822;41.468;13.560;2023-07-08T13:44:30;33.70;66.10
63317;DHT22;49822;41.468;13.560;2023-07-08T13:46:58;33.70;66.50
63317;DHT22;49822;41.468;13.560;2023-07-08T13:49:28;33.70;66.10
63317;DHT22;49822;41.468;13.560;2023-07-08T13:54:40;33.40;66.80
63317;DHT22;49822;41.468;13.560;2023-07-08T13:57:12;33.30;66.60
63317;DHT22;49822;41.468;13.560;2023-07-08T13:59:39;33.10;66.60
63317;DHT22;49822;41.468;13.560;2023-07-08T14:02:27;33.30;66.10
63317;DHT22;49822;41.468;13.560;2023-07-08T14:04:56;33.20;66.00
63317;DHT22;49822;41.468;13.560;2023-07-08T14:07:28;33.40;66.80
63317;DHT22;49822;41.468;13.560;2023-07-08T14:09:56;33.30;65.70
63317;DHT22;49822;41.468;13.560;2023-07-08T14:12:24;33.00;65.90
63317;DHT22;49822;41.468;13.560;2023-07-08T14:14:51;33.10;65.50
63317;DHT22;49822;41.468;13.560;2023-07-08T14:17:22;33.00;66.10
63317;DHT22;49822;41.468;13.560;2023-07-08T14:19:49;32.70;65.70
63317;DHT22;49822;41.468;13.560;2023-07-08T14:22:30;32.70;65.90
63317;DHT22;49822;41.468;13.560;2023-07-08T14:25:01;32.30;66.70
63317;DHT22;49822;41.468;13.560;2023-07-08T14:27:27;32.50;66.30
63317;DHT22;49822;41.468;13.560;2023-07-08T14:29:53;32.50;66.60
63317;DHT22;49822;41.468;13.560;2023-07-08T14:32:26;32.30;66.50
63317;DHT22;49822;41.468;13.560;2023-07-08T14:35:22;32.30;67.10
63317;DHT22;49822;41.468;13.560;2023-07-08T14:37:52;32.50;66.60
63317;DHT22;49822;41.468;13.560;2023-07-08T14:43:06;32.70;66.60
63317;DHT22;49822;41.468;13.560;2023-07-08T14:45:43;32.70;66.50
63317;DHT22;49822;41.468;13.560;2023-07-08T14:48:12;32.50;66.20
63317;DHT22;49822;41.468;13.560;2023-07-08T14:50:39;32.50;66.20
63317;DHT22;49822;41.468;13.560;2023-07-08T14:53:06;32.40;66.80
63317;DHT22;49822;41.468;13.560;2023-07-08T14:55:33;32.40;67.20
63317;DHT22;49822;41.468;13.560;2023-07-08T14:57:59;32.50;67.40
63317;DHT22;49822;41.468;13.560;2023-07-08T15:00:28;32.40;67.00
63317;DHT22;49822;41.468;13.560;2023-07-08T15:02:58;32.50;67.20
63317;DHT22;49822;41.468;13.560;2023-07-08T15:05:30;32.40;66.70
63317;DHT22;49822;41.468;13.560;2023-07-08T15:07:57;32.30;66.40
63317;DHT22;49822;41.468;13.560;2023-07-08T15:10:27;32.30;67.60
63317;DHT22;49822;41.468;13.560;2023-07-08T15:12:55;32.40;66.90
63317;DHT22;49822;41.468;13.560;2023-07-08T15:15:31;32.40;67.00
63317;DHT22;49822;41.468;13.560;2023-07-08T15:17:59;32.30;67.00
63317;DHT22;49822;41.468;13.560;2023-07-08T15:20:26;32.10;67.20
63317;DHT22;49822;41.468;13.560;2023-07-08T15:22:53;32.20;67.30
63317;DHT22;49822;41.468;13.560;2023-07-08T15:25:19;32.00;67.00
63317;DHT22;49822;41.468;13.560;2023-07-08T15:27:49;32.10;67.50
63317;DHT22;49822;41.468;13.560;2023-07-08T15:30:22;32.10;67.20
63317;DHT22;49822;41.468;13.560;2023-07-08T15:32:50;32.10;68.20
63317;DHT22;49822;41.468;13.560;2023-07-08T15:35:20;32.00;68.40
63317;DHT22;49822;41.468;13.560;2023-07-08T15:37:47;32.00;68.30
63317;DHT22;49822;41.468;13.560;2023-07-08T15:40:16;32.00;67.80
63317;DHT22;49822;41.468;13.560;2023-07-08T15:42:44;31.90;67.80
63317;DHT22;49822;41.468;13.560;2023-07-08T15:45:23;31.70;69.30
63317;DHT22;49822;41.468;13.560;2023-07-08T15:47:54;31.70;69.40
63317;DHT22;49822;41.468;13.560;2023-07-08T15:50:23;31.40;69.50
63317;DHT22;49822;41.468;13.560;2023-07-08T15:52:50;31.50;70.00
63317;DHT22;49822;41.468;13.560;2023-07-08T15:55:23;31.40;70.10
63317;DHT22;49822;41.468;13.560;2023-07-08T15:57:59;31.40;69.90
63317;DHT22;49822;41.468;13.560;2023-07-08T16:00:34;31.30;69.50
63317;DHT22;49822;41.468;13.560;2023-07-08T16:03:11;31.30;70.70
63317;DHT22;49822;41.468;13.560;2023-07-08T16:05:38;31.40;70.70
63317;DHT22;49822;41.468;13.560;2023-07-08T16:08:04;31.50;69.30
63317;DHT22;49822;41.468;13.560;2023-07-08T16:10:32;31.40;69.40
63317;DHT22;49822;41.468;13.560;2023-07-08T16:12:58;31.30;69.80
63317;DHT22;49822;41.468;13.560;2023-07-08T16:15:32;31.30;70.30
63317;DHT22;49822;41.468;13.560;2023-07-08T16:18:04;31.00;70.50
63317;DHT22;49822;41.468;13.560;2023-07-08T16:20:30;31.00;70.10
63317;DHT22;49822;41.468;13.560;2023-07-08T16:22:58;31.10;71.20
63317;DHT22;49822;41.468;13.560;2023-07-08T16:25:32;30.80;70.80
63317;DHT22;49822;41.468;13.560;2023-07-08T16:28:00;31.00;71.00
63317;DHT22;49822;41.468;13.560;2023-07-08T16:30:29;31.00;71.40
63317;DHT22;49822;41.468;13.560;2023-07-08T16:32:57;30.90;70.50
63317;DHT22;49822;41.468;13.560;2023-07-08T16:35:23;30.90;70.70
63317;DHT22;49822;41.468;13.560;2023-07-08T16:37:51;30.90;71.40
63317;DHT22;49822;41.468;13.560;2023-07-08T16:40:25;30.90;71.20
63317;DHT22;49822;41.468;13.560;2023-07-08T16:42:57;31.00;71.30
63317;DHT22;49822;41.468;13.560;2023-07-08T16:45:26;31.10;71.40